sensor_id;sensor_type;location;lat;lon;timestamp;pressure;altitude;pressure_sealevel;temperature;humidity
66762;BME280;53672;48.176;16.338;2022-12-20T00:02:05;100454.25;;;-2.14;100.00
66762;BME280;53672;48.176;16.338;2022-12-20T00:07:06;100458.88;;;-2.16;100.00
66762;BME280;53672;48.176;16.338;2022-12-20T00:12:08;100464.16;;;-2.16;100.00
66762;BME280;53672;48.176;16.338;2022-12-20T00:17:08;100447.31;;;-2.15;100.00
66762;BME280;53672;48.176;16.338;2022-12-20T00:22:09;100433.81;;;-2.20;100.00
66762;BME280;53672;48.176;16.338;2022-12-20T00:27:11;100440.09;;;-2.13;100.00
66762;BME280;53672;48.176;16.338;2022-12-20T00:32:11;100432.47;;;-2.16;100.00
66762;BME280;53672;48.176;16.338;2022-12-20T00:37:12;100451.97;;;-2.17;100.00
66762;BME280;53672;48.176;16.338;2022-12-20T00:42:13;100443.69;;;-2.22;100.00
66762;BME280;53672;48.176;16.338;2022-12-20T00:47:14;100440.91;;;-2.20;100.00
66762;BME280;53672;48.176;16.338;2022-12-20T00:52:14;100448.00;;;-2.21;100.00
66762;BME280;53672;48.176;16.338;2022-12-20T00:57:16;100465.66;;;-2.13;100.00
66762;BME280;53672;48.176;16.338;2022-12-20T01:02:17;100465.16;;;-2.17;100.00
66762;BME280;53672;48.176;16.338;2022-12-20T01:07:17;100464.00;;;-2.14;100.00
66762;BME280;53672;48.176;16.338;2022-12-20T01:12:19;100460.22;;;-2.20;100.00
66762;BME280;53672;48.176;16.338;2022-12-20T01:17:19;100472.06;;;-2.16;100.00
66762;BME280;53672;48.176;16.338;2022-12-20T01:22:20;100454.94;;;-2.20;100.00
66762;BME280;53672;48.176;16.338;2022-12-20T01:27:22;100431.31;;;-2.21;100.00
66762;BME280;53672;48.176;16.338;2022-12-20T01:32:23;100430.69;;;-2.23;100.00
66762;BME280;53672;48.176;16.338;2022-12-20T01:37:23;100431.97;;;-2.19;100.00
66762;BME280;53672;48.176;16.338;2022-12-20T01:42:25;100425.22;;;-2.14;100.00
66762;BME280;53672;48.176;16.338;2022-12-20T01:47:29;100419.78;;;-2.20;100.00
66762;BME280;53672;48.176;16.338;2022-12-20T01:52:34;100409.03;;;-2.19;100.00
66762;BME280;53672;48.176;16.338;2022-12-20T01:57:41;100416.97;;;-2.11;100.00
66762;BME280;53672;48.176;16.338;2022-12-20T02:02:45;100408.69;;;-2.16;100.00
66762;BME280;53672;48.176;16.338;2022-12-20T02:07:48;100435.78;;;-2.06;100.00
66762;BME280;53672;48.176;16.338;2022-12-20T02:12:56;100424.72;;;-2.09;100.00
66762;BME280;53672;48.176;16.338;2022-12-20T02:18:07;100418.28;;;-2.07;100.00
66762;BME280;53672;48.176;16.338;2022-12-20T02:23:37;100394.03;;;-2.10;100.00
66762;BME280;53672;48.176;16.338;2022-12-20T02:29:02;100408.69;;;-2.08;100.00
66762;BME280;53672;48.176;16.338;2022-12-20T02:34:09;100388.06;;;-2.04;100.00
66762;BME280;53672;48.176;16.338;2022-12-20T02:39:11;100386.06;;;-2.02;100.00
66762;BME280;53672;48.176;16.338;2022-12-20T02:44:13;100385.56;;;-1.97;99.75
66762;BME280;53672;48.176;16.338;2022-12-20T02:49:19;100380.13;;;-1.96;99.99
66762;BME280;53672;48.176;16.338;2022-12-20T02:54:21;100382.28;;;-1.99;99.46
66762;BME280;53672;48.176;16.338;2022-12-20T02:59:24;100383.41;;;-2.02;99.94
66762;BME280;53672;48.176;16.338;2022-12-20T03:04:30;100388.06;;;-1.96;100.00
66762;BME280;53672;48.176;16.338;2022-12-20T03:09:33;100381.94;;;-1.96;100.00
66762;BME280;53672;48.176;16.338;2022-12-20T03:14:34;100398.44;;;-1.94;100.00
66762;BME280;53672;48.176;16.338;2022-12-20T03:19:36;100387.56;;;-1.99;100.00
66762;BME280;53672;48.176;16.338;2022-12-20T03:24:37;100380.13;;;-2.04;100.00
66762;BME280;53672;48.176;16.338;2022-12-20T03:29:37;100367.44;;;-2.09;100.00
66762;BME280;53672;48.176;16.338;2022-12-20T03:34:39;100368.75;;;-2.05;100.00
66762;BME280;53672;48.176;16.338;2022-12-20T03:39:39;100356.50;;;-1.97;100.00
66762;BME280;53672;48.176;16.338;2022-12-20T03:44:40;100366.09;;;-2.05;100.00
66762;BME280;53672;48.176;16.338;2022-12-20T03:49:42;100370.41;;;-2.03;100.00
66762;BME280;53672;48.176;16.338;2022-12-20T03:54:42;100369.56;;;-1.96;100.00
66762;BME280;53672;48.176;16.338;2022-12-20T03:59:43;100371.72;;;-1.99;100.00
66762;BME280;53672;48.176;16.338;2022-12-20T04:04:44;100375.97;;;-1.98;100.00
66762;BME280;53672;48.176;16.338;2022-12-20T04:09:45;100360.63;;;-1.95;100.00
66762;BME280;53672;48.176;16.338;2022-12-20T04:14:45;100379.31;;;-1.96;100.00
66762;BME280;53672;48.176;16.338;2022-12-20T04:19:47;100387.22;;;-1.96;100.00
66762;BME280;53672;48.176;16.338;2022-12-20T04:24:48;100380.78;;;-2.02;100.00
66762;BME280;53672;48.176;16.338;2022-12-20T04:29:48;100378.97;;;-1.93;100.00
66762;BME280;53672;48.176;16.338;2022-12-20T04:34:50;100378.13;;;-1.94;100.00
66762;BME280;53672;48.176;16.338;2022-12-20T04:39:50;100387.53;;;-1.91;100.00
66762;BME280;53672;48.176;16.338;2022-12-20T04:44:51;100371.03;;;-2.01;100.00
66762;BME280;53672;48.176;16.338;2022-12-20T04:49:53;100357.97;;;-1.95;100.00
66762;BME280;53672;48.176;16.338;2022-12-20T04:54:53;100360.13;;;-1.98;100.00
66762;BME280;53672;48.176;16.338;2022-12-20T04:59:54;100362.13;;;-2.00;100.00
66762;BME280;53672;48.176;16.338;2022-12-20T05:04:56;100379.16;;;-2.03;100.00
66762;BME280;53672;48.176;16.338;2022-12-20T05:09:56;100360.31;;;-1.92;100.00
66762;BME280;53672;48.176;16.338;2022-12-20T05:14:56;100355.38;;;-2.03;100.00
66762;BME280;53672;48.176;16.338;2022-12-20T05:19:58;100346.94;;;-1.98;100.00
66762;BME280;53672;48.176;16.338;2022-12-20T05:24:59;100341.66;;;-1.98;100.00
66762;BME280;53672;48.176;16.338;2022-12-20T05:29:59;100351.91;;;-1.95;100.00
66762;BME280;53672;48.176;16.338;2022-12-20T05:35:01;100340.31;;;-1.94;100.00
66762;BME280;53672;48.176;16.338;2022-12-20T05:40:02;100335.03;;;-1.94;100.00
66762;BME280;53672;48.176;16.338;2022-12-20T05:45:04;100339.97;;;-1.91;100.00
66762;BME280;53672;48.176;16.338;2022-12-20T05:50:07;100351.56;;;-2.00;100.00
66762;BME280;53672;48.176;16.338;2022-12-20T05:55:08;100338.69;;;-1.95;100.00
66762;BME280;53672;48.176;16.338;2022-12-20T06:00:10;100347.59;;;-1.96;100.00
66762;BME280;53672;48.176;16.338;2022-12-20T06:05:12;100361.97;;;-1.99;100.00
66762;BME280;53672;48.176;16.338;2022-12-20T06:10:13;100332.75;;;-1.97;100.00
66762;BME280;53672;48.176;16.338;2022-12-20T06:15:13;100331.56;;;-1.95;100.00
66762;BME280;53672;48.176;16.338;2022-12-20T06:20:15;100335.22;;;-1.96;100.00
66762;BME280;53672;48.176;16.338;2022-12-20T06:25:16;100338.50;;;-1.94;100.00
66762;BME280;53672;48.176;16.338;2022-12-20T06:30:16;100332.75;;;-1.97;100.00
66762;BME280;53672;48.176;16.338;2022-12-20T06:35:18;100339.19;;;-1.92;100.00
66762;BME280;53672;48.176;16.338;2022-12-20T06:40:19;100345.66;;;-2.02;100.00
66762;BME280;53672;48.176;16.338;2022-12-20T06:45:19;100336.22;;;-1.97;100.00
66762;BME280;53672;48.176;16.338;2022-12-20T06:50:21;100324.31;;;-1.93;100.00
66762;BME280;53672;48.176;16.338;2022-12-20T06:55:22;100321.00;;;-1.95;100.00
66762;BME280;53672;48.176;16.338;2022-12-20T07:00:23;100329.13;;;-1.96;100.00
66762;BME280;53672;48.176;16.338;2022-12-20T07:05:25;100329.25;;;-1.90;100.00
66762;BME280;53672;48.176;16.338;2022-12-20T07:10:25;100318.00;;;-1.84;100.00
66762;BME280;53672;48.176;16.338;2022-12-20T07:15:26;100340.13;;;-1.85;100.00
66762;BME280;53672;48.176;16.338;2022-12-20T07:20:28;100341.63;;;-1.90;100.00
66762;BME280;53672;48.176;16.338;2022-12-20T07:25:28;100369.88;;;-1.91;100.00
66762;BME280;53672;48.176;16.338;2022-12-20T07:30:29;100350.03;;;-1.87;100.00
66762;BME280;53672;48.176;16.338;2022-12-20T07:35:31;100332.69;;;-1.81;100.00
66762;BME280;53672;48.176;16.338;2022-12-20T07:40:31;100304.00;;;-1.92;100.00
66762;BME280;53672;48.176;16.338;2022-12-20T07:45:32;100303.81;;;-1.91;100.00
66762;BME280;53672;48.176;16.338;2022-12-20T07:50:34;100318.84;;;-1.91;100.00
66762;BME280;53672;48.176;16.338;2022-12-20T07:55:35;100314.22;;;-1.89;100.00
66762;BME280;53672;48.176;16.338;2022-12-20T08:00:37;100315.19;;;-1.82;100.00
66762;BME280;53672;48.176;16.338;2022-12-20T08:05:41;100337.81;;;-1.80;100.00
66762;BME280;53672;48.176;16.338;2022-12-20T08:10:43;100327.75;;;-1.84;100.00
66762;BME280;53672;48.176;16.338;2022-12-20T08:15:44;100327.84;;;-1.70;100.00
66762;BME280;53672;48.176;16.338;2022-12-20T08:20:46;100323.56;;;-1.71;100.00
66762;BME280;53672;48.176;16.338;2022-12-20T08:25:46;100325.91;;;-1.76;100.00
66762;BME280;53672;48.176;16.338;2022-12-20T08:30:46;100311.22;;;-1.78;100.00
66762;BME280;53672;48.176;16.338;2022-12-20T08:35:56;100311.84;;;-1.68;100.00
66762;BME280;53672;48.176;16.338;2022-12-20T08:41:01;100302.13;;;-1.76;100.00
66762;BME280;53672;48.176;16.338;2022-12-20T08:46:02;100302.59;;;-1.72;100.00
66762;BME280;53672;48.176;16.338;2022-12-20T08:51:05;100313.47;;;-1.67;100.00
66762;BME280;53672;48.176;16.338;2022-12-20T08:56:08;100310.00;;;-1.68;100.00
66762;BME280;53672;48.176;16.338;2022-12-20T09:01:10;100297.13;;;-1.71;100.00
66762;BME280;53672;48.176;16.338;2022-12-20T09:06:14;100306.22;;;-1.73;100.00
66762;BME280;53672;48.176;16.338;2022-12-20T09:11:17;100301.44;;;-1.78;100.00
66762;BME280;53672;48.176;16.338;2022-12-20T09:16:20;100297.09;;;-1.63;100.00
66762;BME280;53672;48.176;16.338;2022-12-20T09:21:23;100316.06;;;-1.59;100.00
66762;BME280;53672;48.176;16.338;2022-12-20T09:26:24;100291.66;;;-1.61;100.00
66762;BME280;53672;48.176;16.338;2022-12-20T09:31:25;100274.72;;;-1.75;100.00
66762;BME280;53672;48.176;16.338;2022-12-20T09:36:28;100278.75;;;-1.64;100.00
66762;BME280;53672;48.176;16.338;2022-12-20T09:41:32;100270.66;;;-1.63;100.00
66762;BME280;53672;48.176;16.338;2022-12-20T09:46:33;100275.09;;;-1.55;100.00
66762;BME280;53672;48.176;16.338;2022-12-20T09:51:47;100275.09;;;-1.55;100.00
66762;BME280;53672;48.176;16.338;2022-12-20T09:56:57;100271.91;;;-1.50;100.00
66762;BME280;53672;48.176;16.338;2022-12-20T10:01:59;100261.22;;;-1.57;100.00
66762;BME280;53672;48.176;16.338;2022-12-20T10:07:15;100267.69;;;-1.37;100.00
66762;BME280;53672;48.176;16.338;2022-12-20T10:12:26;100266.22;;;-1.39;100.00
66762;BME280;53672;48.176;16.338;2022-12-20T10:17:37;100268.94;;;-1.47;100.00
66762;BME280;53672;48.176;16.338;2022-12-20T10:22:47;100251.19;;;-1.39;100.00
66762;BME280;53672;48.176;16.338;2022-12-20T10:27:54;100243.16;;;-1.45;100.00
66762;BME280;53672;48.176;16.338;2022-12-20T10:32:56;100239.03;;;-1.48;100.00
66762;BME280;53672;48.176;16.338;2022-12-20T10:38:00;100221.41;;;-1.33;100.00
66762;BME280;53672;48.176;16.338;2022-12-20T10:43:02;100211.13;;;-1.28;99.05
66762;BME280;53672;48.176;16.338;2022-12-20T10:48:05;100211.06;;;-1.42;98.59
66762;BME280;53672;48.176;16.338;2022-12-20T10:53:29;100212.25;;;-1.45;99.29
66762;BME280;53672;48.176;16.338;2022-12-20T10:58:32;100196.38;;;-1.45;99.41
66762;BME280;53672;48.176;16.338;2022-12-20T11:03:48;100185.22;;;-1.32;98.64
66762;BME280;53672;48.176;16.338;2022-12-20T11:08:51;100175.34;;;-1.38;98.70
66762;BME280;53672;48.176;16.338;2022-12-20T11:13:51;100174.06;;;-1.42;99.17
66762;BME280;53672;48.176;16.338;2022-12-20T11:18:59;100155.59;;;-1.28;99.86
66762;BME280;53672;48.176;16.338;2022-12-20T11:24:09;100141.25;;;-1.33;100.00
66762;BME280;53672;48.176;16.338;2022-12-20T11:29:23;100149.53;;;-1.36;100.00
66762;BME280;53672;48.176;16.338;2022-12-20T11:34:37;100140.56;;;-1.27;98.42
66762;BME280;53672;48.176;16.338;2022-12-20T11:39:46;100136.44;;;-1.30;97.99
66762;BME280;53672;48.176;16.338;2022-12-20T11:44:55;100127.53;;;-1.14;98.40
66762;BME280;53672;48.176;16.338;2022-12-20T11:50:16;100138.75;;;-1.27;99.35
66762;BME280;53672;48.176;16.338;2022-12-20T11:55:24;100116.94;;;-1.29;99.45
66762;BME280;53672;48.176;16.338;2022-12-20T12:00:26;100097.13;;;-1.33;99.26
66762;BME280;53672;48.176;16.338;2022-12-20T12:05:39;100094.28;;;-1.46;100.00
66762;BME280;53672;48.176;16.338;2022-12-20T12:10:50;100081.28;;;-1.33;100.00
66762;BME280;53672;48.176;16.338;2022-12-20T12:15:54;100075.81;;;-1.31;100.00
66762;BME280;53672;48.176;16.338;2022-12-20T12:21:01;100063.22;;;-1.29;100.00
66762;BME280;53672;48.176;16.338;2022-12-20T12:26:11;100071.50;;;-1.47;100.00
66762;BME280;53672;48.176;16.338;2022-12-20T12:31:15;100067.13;;;-1.40;99.71
66762;BME280;53672;48.176;16.338;2022-12-20T12:36:36;100056.56;;;-1.40;100.00
66762;BME280;53672;48.176;16.338;2022-12-20T12:47:14;100055.31;;;-1.44;100.00
66762;BME280;53672;48.176;16.338;2022-12-20T12:52:28;100068.72;;;-1.31;99.55
66762;BME280;53672;48.176;16.338;2022-12-20T12:57:53;100068.34;;;-1.28;99.13
66762;BME280;53672;48.176;16.338;2022-12-20T13:02:54;100060.03;;;-1.39;100.00
66762;BME280;53672;48.176;16.338;2022-12-20T13:07:55;100046.91;;;-1.47;100.00
66762;BME280;53672;48.176;16.338;2022-12-20T13:12:57;100054.72;;;-1.54;100.00
66762;BME280;53672;48.176;16.338;2022-12-20T13:17:59;100070.69;;;-1.47;100.00
66762;BME280;53672;48.176;16.338;2022-12-20T13:23:14;100068.25;;;-1.34;100.00
66762;BME280;53672;48.176;16.338;2022-12-20T13:28:44;100068.06;;;-1.33;100.00
66762;BME280;53672;48.176;16.338;2022-12-20T13:33:46;100070.44;;;-1.38;100.00
66762;BME280;53672;48.176;16.338;2022-12-20T13:38:52;100062.66;;;-1.39;100.00
66762;BME280;53672;48.176;16.338;2022-12-20T13:43:57;100070.69;;;-1.33;99.87
66762;BME280;53672;48.176;16.338;2022-12-20T13:49:00;100062.13;;;-1.35;98.96
66762;BME280;53672;48.176;16.338;2022-12-20T13:54:03;100050.63;;;-1.42;98.79
66762;BME280;53672;48.176;16.338;2022-12-20T13:59:13;100041.97;;;-1.36;98.86
66762;BME280;53672;48.176;16.338;2022-12-20T14:04:14;100036.78;;;-1.29;98.24
66762;BME280;53672;48.176;16.338;2022-12-20T14:09:29;100040.44;;;-1.30;97.50
66762;BME280;53672;48.176;16.338;2022-12-20T14:14:35;100027.09;;;-1.37;97.72
66762;BME280;53672;48.176;16.338;2022-12-20T14:19:36;100024.66;;;-1.38;97.52
66762;BME280;53672;48.176;16.338;2022-12-20T14:24:38;100020.09;;;-1.44;98.22
66762;BME280;53672;48.176;16.338;2022-12-20T14:29:44;100035.69;;;-1.35;98.83
66762;BME280;53672;48.176;16.338;2022-12-20T14:34:45;100034.59;;;-1.40;98.98
66762;BME280;53672;48.176;16.338;2022-12-20T14:39:54;100019.66;;;-1.48;99.83
66762;BME280;53672;48.176;16.338;2022-12-20T14:45:04;100018.63;;;-1.47;100.00
66762;BME280;53672;48.176;16.338;2022-12-20T14:50:17;100019.81;;;-1.49;100.00
66762;BME280;53672;48.176;16.338;2022-12-20T14:55:20;100027.03;;;-1.58;100.00
66762;BME280;53672;48.176;16.338;2022-12-20T15:00:25;100020.34;;;-1.54;100.00
66762;BME280;53672;48.176;16.338;2022-12-20T15:05:45;100006.69;;;-1.58;100.00
66762;BME280;53672;48.176;16.338;2022-12-20T15:10:49;100004.84;;;-1.57;100.00
66762;BME280;53672;48.176;16.338;2022-12-20T15:15:52;100000.97;;;-1.61;100.00
66762;BME280;53672;48.176;16.338;2022-12-20T15:21:00;100000.59;;;-1.58;100.00
66762;BME280;53672;48.176;16.338;2022-12-20T15:26:02;100024.91;;;-1.63;100.00
66762;BME280;53672;48.176;16.338;2022-12-20T15:31:04;100041.50;;;-1.54;100.00
66762;BME280;53672;48.176;16.338;2022-12-20T15:36:05;100034.03;;;-1.50;100.00
66762;BME280;53672;48.176;16.338;2022-12-20T15:41:10;100021.00;;;-1.52;100.00
66762;BME280;53672;48.176;16.338;2022-12-20T15:46:14;100015.00;;;-1.46;100.00
66762;BME280;53672;48.176;16.338;2022-12-20T15:51:24;99999.22;;;-1.54;100.00
66762;BME280;53672;48.176;16.338;2022-12-20T15:56:27;100002.75;;;-1.47;100.00
66762;BME280;53672;48.176;16.338;2022-12-20T16:01:34;99981.28;;;-1.44;100.00
66762;BME280;53672;48.176;16.338;2022-12-20T16:06:35;99982.00;;;-1.35;100.00
66762;BME280;53672;48.176;16.338;2022-12-20T16:11:36;99975.78;;;-1.57;100.00
66762;BME280;53672;48.176;16.338;2022-12-20T16:16:38;99967.84;;;-1.57;100.00
66762;BME280;53672;48.176;16.338;2022-12-20T16:21:41;99970.50;;;-1.57;100.00
66762;BME280;53672;48.176;16.338;2022-12-20T16:26:43;99957.94;;;-1.55;100.00
66762;BME280;53672;48.176;16.338;2022-12-20T16:31:45;99947.38;;;-1.55;100.00
66762;BME280;53672;48.176;16.338;2022-12-20T16:36:45;99955.31;;;-1.55;100.00
66762;BME280;53672;48.176;16.338;2022-12-20T16:41:46;99955.00;;;-1.60;100.00
66762;BME280;53672;48.176;16.338;2022-12-20T16:46:48;99960.66;;;-1.63;100.00
66762;BME280;53672;48.176;16.338;2022-12-20T16:51:48;99972.59;;;-1.52;100.00
66762;BME280;53672;48.176;16.338;2022-12-20T16:56:50;99978.78;;;-1.60;100.00
66762;BME280;53672;48.176;16.338;2022-12-20T17:01:54;99984.16;;;-1.54;100.00
66762;BME280;53672;48.176;16.338;2022-12-20T17:06:55;99984.44;;;-1.63;100.00
66762;BME280;53672;48.176;16.338;2022-12-20T17:11:57;99981.38;;;-1.52;100.00
66762;BME280;53672;48.176;16.338;2022-12-20T17:16:59;99969.78;;;-1.51;100.00
66762;BME280;53672;48.176;16.338;2022-12-20T17:22:00;99953.56;;;-1.48;100.00
66762;BME280;53672;48.176;16.338;2022-12-20T17:27:00;99939.69;;;-1.50;100.00
66762;BME280;53672;48.176;16.338;2022-12-20T17:32:15;99938.16;;;-1.59;100.00
66762;BME280;53672;48.176;16.338;2022-12-20T17:37:17;99939.06;;;-1.52;100.00
66762;BME280;53672;48.176;16.338;2022-12-20T17:42:17;99942.63;;;-1.60;100.00
66762;BME280;53672;48.176;16.338;2022-12-20T17:47:19;99951.00;;;-1.56;100.00
66762;BME280;53672;48.176;16.338;2022-12-20T17:52:20;99947.00;;;-1.52;100.00
66762;BME280;53672;48.176;16.338;2022-12-20T17:57:20;99953.56;;;-1.48;100.00
66762;BME280;53672;48.176;16.338;2022-12-20T18:02:23;99956.22;;;-1.48;100.00
66762;BME280;53672;48.176;16.338;2022-12-20T18:07:24;99966.78;;;-1.48;100.00
66762;BME280;53672;48.176;16.338;2022-12-20T18:12:25;99952.75;;;-1.48;100.00
66762;BME280;53672;48.176;16.338;2022-12-20T18:17:27;99936.44;;;-1.52;100.00
66762;BME280;53672;48.176;16.338;2022-12-20T18:22:27;99921.66;;;-1.46;100.00
66762;BME280;53672;48.176;16.338;2022-12-20T18:27:28;99948.75;;;-1.44;100.00
66762;BME280;53672;48.176;16.338;2022-12-20T18:32:31;99911.38;;;-1.41;100.00
66762;BME280;53672;48.176;16.338;2022-12-20T18:37:32;99925.94;;;-1.45;100.00
66762;BME280;53672;48.176;16.338;2022-12-20T18:42:32;99927.13;;;-1.48;100.00
66762;BME280;53672;48.176;16.338;2022-12-20T18:47:34;99894.16;;;-1.52;100.00
66762;BME280;53672;48.176;16.338;2022-12-20T18:52:35;99886.22;;;-1.52;100.00
66762;BME280;53672;48.176;16.338;2022-12-20T18:57:36;99894.16;;;-1.52;100.00
66762;BME280;53672;48.176;16.338;2022-12-20T19:02:38;99889.47;;;-1.50;100.00
66762;BME280;53672;48.176;16.338;2022-12-20T19:07:39;99884.19;;;-1.50;100.00
66762;BME280;53672;48.176;16.338;2022-12-20T19:12:40;99882.84;;;-1.46;100.00
66762;BME280;53672;48.176;16.338;2022-12-20T19:17:42;99888.31;;;-1.47;100.00
66762;BME280;53672;48.176;16.338;2022-12-20T19:22:42;99869.97;;;-1.49;100.00
66762;BME280;53672;48.176;16.338;2022-12-20T19:27:43;99875.66;;;-1.52;100.00
66762;BME280;53672;48.176;16.338;2022-12-20T19:32:45;99867.72;;;-1.52;100.00
66762;BME280;53672;48.176;16.338;2022-12-20T19:37:48;99856.50;;;-1.54;100.00
66762;BME280;53672;48.176;16.338;2022-12-20T19:42:48;99835.00;;;-1.51;100.00
66762;BME280;53672;48.176;16.338;2022-12-20T19:47:51;99834.63;;;-1.48;100.00
66762;BME280;53672;48.176;16.338;2022-12-20T19:52:52;99840.28;;;-1.51;100.00
66762;BME280;53672;48.176;16.338;2022-12-20T19:57:52;99837.38;;;-1.56;100.00
66762;BME280;53672;48.176;16.338;2022-12-20T20:02:54;99830.50;;;-1.50;99.86
66762;BME280;53672;48.176;16.338;2022-12-20T20:07:55;99832.06;;;-1.41;100.00
66762;BME280;53672;48.176;16.338;2022-12-20T20:12:55;99845.72;;;-1.38;99.96
66762;BME280;53672;48.176;16.338;2022-12-20T20:18:00;99824.38;;;-1.36;99.63
66762;BME280;53672;48.176;16.338;2022-12-20T20:23:01;99821.94;;;-1.38;98.78
66762;BME280;53672;48.176;16.338;2022-12-20T20:28:02;99829.94;;;-1.31;99.02
66762;BME280;53672;48.176;16.338;2022-12-20T20:33:04;99800.13;;;-1.40;98.75
66762;BME280;53672;48.176;16.338;2022-12-20T20:38:05;99796.66;;;-1.40;98.06
66762;BME280;53672;48.176;16.338;2022-12-20T20:43:06;99815.91;;;-1.32;97.13
66762;BME280;53672;48.176;16.338;2022-12-20T20:48:08;99802.78;;;-1.40;97.87
66762;BME280;53672;48.176;16.338;2022-12-20T20:53:09;99805.31;;;-1.32;97.85
66762;BME280;53672;48.176;16.338;2022-12-20T20:58:11;99808.13;;;-1.33;97.95
66762;BME280;53672;48.176;16.338;2022-12-20T21:03:13;99813.63;;;-1.35;97.52
66762;BME280;53672;48.176;16.338;2022-12-20T21:08:14;99796.59;;;-1.47;97.92
66762;BME280;53672;48.176;16.338;2022-12-20T21:13:16;99796.44;;;-1.45;97.73
66762;BME280;53672;48.176;16.338;2022-12-20T21:18:18;99787.22;;;-1.49;98.75
66762;BME280;53672;48.176;16.338;2022-12-20T21:23:19;99789.31;;;-1.45;97.94
66762;BME280;53672;48.176;16.338;2022-12-20T21:28:19;99792.13;;;-1.46;98.24
66762;BME280;53672;48.176;16.338;2022-12-20T21:33:21;99783.03;;;-1.44;98.56
66762;BME280;53672;48.176;16.338;2022-12-20T21:38:22;99782.66;;;-1.41;99.18
66762;BME280;53672;48.176;16.338;2022-12-20T21:43:22;99779.38;;;-1.43;99.54
66762;BME280;53672;48.176;16.338;2022-12-20T21:48:25;99751.56;;;-1.39;99.14
66762;BME280;53672;48.176;16.338;2022-12-20T21:53:26;99754.03;;;-1.37;99.18
66762;BME280;53672;48.176;16.338;2022-12-20T21:58:28;99751.00;;;-1.34;98.80
66762;BME280;53672;48.176;16.338;2022-12-20T22:03:31;99751.81;;;-1.34;98.87
66762;BME280;53672;48.176;16.338;2022-12-20T22:08:32;99755.47;;;-1.35;98.81
66762;BME280;53672;48.176;16.338;2022-12-20T22:13:34;99757.28;;;-1.35;99.44
66762;BME280;53672;48.176;16.338;2022-12-20T22:18:36;99755.09;;;-1.32;99.66
66762;BME280;53672;48.176;16.338;2022-12-20T22:23:37;99740.97;;;-1.39;99.16
66762;BME280;53672;48.176;16.338;2022-12-20T22:28:43;99732.44;;;-1.41;100.00
66762;BME280;53672;48.176;16.338;2022-12-20T22:33:45;99724.88;;;-1.44;100.00
66762;BME280;53672;48.176;16.338;2022-12-20T22:38:46;99721.47;;;-1.38;99.77
66762;BME280;53672;48.176;16.338;2022-12-20T22:43:46;99720.22;;;-1.42;100.00
66762;BME280;53672;48.176;16.338;2022-12-20T22:48:48;99713.34;;;-1.36;100.00
66762;BME280;53672;48.176;16.338;2022-12-20T22:53:49;99712.28;;;-1.42;100.00
66762;BME280;53672;48.176;16.338;2022-12-20T22:58:49;99705.19;;;-1.41;100.00
66762;BME280;53672;48.176;16.338;2022-12-20T23:03:51;99703.59;;;-1.36;100.00
66762;BME280;53672;48.176;16.338;2022-12-20T23:08:52;99686.09;;;-1.37;100.00
66762;BME280;53672;48.176;16.338;2022-12-20T23:13:52;99672.13;;;-1.31;100.00
66762;BME280;53672;48.176;16.338;2022-12-20T23:18:54;99668.56;;;-1.44;100.00
66762;BME280;53672;48.176;16.338;2022-12-20T23:23:55;99667.09;;;-1.47;100.00
66762;BME280;53672;48.176;16.338;2022-12-20T23:28:55;99654.00;;;-1.34;100.00
66762;BME280;53672;48.176;16.338;2022-12-20T23:33:57;99659.47;;;-1.35;100.00
66762;BME280;53672;48.176;16.338;2022-12-20T23:38:58;99647.66;;;-1.39;100.00
66762;BME280;53672;48.176;16.338;2022-12-20T23:43:59;99639.78;;;-1.33;100.00
66762;BME280;53672;48.176;16.338;2022-12-20T23:49:00;99634.38;;;-1.46;100.00
66762;BME280;53672;48.176;16.338;2022-12-20T23:54:01;99615.88;;;-1.46;100.00
66762;BME280;53672;48.176;16.338;2022-12-20T23:59:01;99606.31;;;-1.47;100.00
